sensor_id;sensor_type;location;lat;lon;timestamp;temperature;humidity
55135;DHT22;41031;44.750;11.308;2023-01-09T00:00:51;10.00;99.90
55135;DHT22;41031;44.750;11.308;2023-01-09T00:03:19;10.00;99.90
55135;DHT22;41031;44.750;11.308;2023-01-09T00:05:46;10.00;99.90
55135;DHT22;41031;44.750;11.308;2023-01-09T00:08:13;10.00;99.90
55135;DHT22;41031;44.750;11.308;2023-01-09T00:10:40;10.00;99.90
55135;DHT22;41031;44.750;11.308;2023-01-09T00:13:10;10.00;99.90
55135;DHT22;41031;44.750;11.308;2023-01-09T00:15:39;10.00;99.90
55135;DHT22;41031;44.750;11.308;2023-01-09T00:18:06;10.00;99.90
55135;DHT22;41031;44.750;11.308;2023-01-09T00:20:34;10.10;99.90
55135;DHT22;41031;44.750;11.308;2023-01-09T00:23:01;10.10;99.90
55135;DHT22;41031;44.750;11.308;2023-01-09T00:25:27;10.10;99.90
55135;DHT22;41031;44.750;11.308;2023-01-09T00:27:55;10.10;99.90
55135;DHT22;41031;44.750;11.308;2023-01-09T00:30:22;10.10;99.90
55135;DHT22;41031;44.750;11.308;2023-01-09T00:32:49;10.10;99.90
55135;DHT22;41031;44.750;11.308;2023-01-09T00:35:17;10.10;99.90
55135;DHT22;41031;44.750;11.308;2023-01-09T00:37:44;10.10;99.90
55135;DHT22;41031;44.750;11.308;2023-01-09T00:40:13;10.10;99.90
55135;DHT22;41031;44.750;11.308;2023-01-09T00:42:42;10.10;99.90
55135;DHT22;41031;44.750;11.308;2023-01-09T00:45:14;10.10;99.90
55135;DHT22;41031;44.750;11.308;2023-01-09T00:47:46;10.10;99.90
55135;DHT22;41031;44.750;11.308;2023-01-09T00:50:18;10.10;99.90
55135;DHT22;41031;44.750;11.308;2023-01-09T00:52:47;10.10;99.90
55135;DHT22;41031;44.750;11.308;2023-01-09T00:55:15;10.10;99.90
55135;DHT22;41031;44.750;11.308;2023-01-09T00:57:42;10.20;99.90
55135;DHT22;41031;44.750;11.308;2023-01-09T01:00:10;10.20;99.90
55135;DHT22;41031;44.750;11.308;2023-01-09T01:02:37;10.20;99.90
55135;DHT22;41031;44.750;11.308;2023-01-09T01:05:05;10.20;99.90
55135;DHT22;41031;44.750;11.308;2023-01-09T01:07:51;10.20;99.90
55135;DHT22;41031;44.750;11.308;2023-01-09T01:10:24;10.30;99.90
55135;DHT22;41031;44.750;11.308;2023-01-09T01:12:51;10.30;99.90
55135;DHT22;41031;44.750;11.308;2023-01-09T01:15:19;10.30;99.90
55135;DHT22;41031;44.750;11.308;2023-01-09T01:17:47;10.30;99.90
55135;DHT22;41031;44.750;11.308;2023-01-09T01:20:16;10.30;99.90
55135;DHT22;41031;44.750;11.308;2023-01-09T01:22:43;10.30;99.90
55135;DHT22;41031;44.750;11.308;2023-01-09T01:25:11;10.30;99.90
55135;DHT22;41031;44.750;11.308;2023-01-09T01:27:39;10.30;99.90
55135;DHT22;41031;44.750;11.308;2023-01-09T01:30:07;10.30;99.90
55135;DHT22;41031;44.750;11.308;2023-01-09T01:32:35;10.40;99.90
55135;DHT22;41031;44.750;11.308;2023-01-09T01:35:03;10.40;99.90
55135;DHT22;41031;44.750;11.308;2023-01-09T01:37:30;10.40;99.90
55135;DHT22;41031;44.750;11.308;2023-01-09T01:39:58;10.40;99.90
55135;DHT22;41031;44.750;11.308;2023-01-09T01:42:25;10.40;99.90
55135;DHT22;41031;44.750;11.308;2023-01-09T01:47:42;10.40;99.90
55135;DHT22;41031;44.750;11.308;2023-01-09T01:50:24;10.40;99.90
55135;DHT22;41031;44.750;11.308;2023-01-09T01:55:38;10.30;99.90
55135;DHT22;41031;44.750;11.308;2023-01-09T01:58:08;10.30;99.90
55135;DHT22;41031;44.750;11.308;2023-01-09T02:00:42;10.30;99.90
55135;DHT22;41031;44.750;11.308;2023-01-09T02:03:11;10.30;99.90
55135;DHT22;41031;44.750;11.308;2023-01-09T02:05:40;10.40;99.90
55135;DHT22;41031;44.750;11.308;2023-01-09T02:08:08;10.40;99.90
55135;DHT22;41031;44.750;11.308;2023-01-09T02:10:36;10.40;99.90
55135;DHT22;41031;44.750;11.308;2023-01-09T02:13:06;10.40;99.90
55135;DHT22;41031;44.750;11.308;2023-01-09T02:18:39;10.50;99.90
55135;DHT22;41031;44.750;11.308;2023-01-09T02:24:04;10.50;99.90
55135;DHT22;41031;44.750;11.308;2023-01-09T02:31:51;10.50;99.90
55135;DHT22;41031;44.750;11.308;2023-01-09T02:34:25;10.50;99.90
55135;DHT22;41031;44.750;11.308;2023-01-09T02:37:28;10.40;99.90
55135;DHT22;41031;44.750;11.308;2023-01-09T02:40:18;10.40;99.90
55135;DHT22;41031;44.750;11.308;2023-01-09T02:42:47;10.40;99.90
55135;DHT22;41031;44.750;11.308;2023-01-09T02:45:15;10.40;99.90
55135;DHT22;41031;44.750;11.308;2023-01-09T02:47:44;10.30;99.90
55135;DHT22;41031;44.750;11.308;2023-01-09T02:50:16;10.40;99.90
55135;DHT22;41031;44.750;11.308;2023-01-09T03:04:08;10.30;99.90
55135;DHT22;41031;44.750;11.308;2023-01-09T03:06:48;10.30;99.90
55135;DHT22;41031;44.750;11.308;2023-01-09T03:09:19;10.30;99.90
55135;DHT22;41031;44.750;11.308;2023-01-09T03:12:09;10.30;99.90
55135;DHT22;41031;44.750;11.308;2023-01-09T03:14:41;10.30;99.90
55135;DHT22;41031;44.750;11.308;2023-01-09T03:17:13;10.30;99.90
55135;DHT22;41031;44.750;11.308;2023-01-09T03:19:42;10.20;99.90
55135;DHT22;41031;44.750;11.308;2023-01-09T03:22:11;10.30;99.90
55135;DHT22;41031;44.750;11.308;2023-01-09T03:24:38;10.20;99.90
55135;DHT22;41031;44.750;11.308;2023-01-09T03:27:08;10.20;99.90
55135;DHT22;41031;44.750;11.308;2023-01-09T03:29:35;10.20;99.90
55135;DHT22;41031;44.750;11.308;2023-01-09T03:32:03;10.20;99.90
55135;DHT22;41031;44.750;11.308;2023-01-09T03:34:30;10.20;99.90
55135;DHT22;41031;44.750;11.308;2023-01-09T03:36:57;10.20;99.90
55135;DHT22;41031;44.750;11.308;2023-01-09T03:39:24;10.20;99.90
55135;DHT22;41031;44.750;11.308;2023-01-09T03:41:51;10.20;99.90
55135;DHT22;41031;44.750;11.308;2023-01-09T03:44:18;10.20;99.90
55135;DHT22;41031;44.750;11.308;2023-01-09T03:46:45;10.20;99.90
55135;DHT22;41031;44.750;11.308;2023-01-09T03:49:12;10.10;99.90
55135;DHT22;41031;44.750;11.308;2023-01-09T03:51:39;10.10;99.90
55135;DHT22;41031;44.750;11.308;2023-01-09T03:54:07;10.10;99.90
55135;DHT22;41031;44.750;11.308;2023-01-09T03:56:34;10.10;99.90
55135;DHT22;41031;44.750;11.308;2023-01-09T03:59:01;10.00;99.90
55135;DHT22;41031;44.750;11.308;2023-01-09T04:01:28;10.00;99.90
55135;DHT22;41031;44.750;11.308;2023-01-09T04:03:55;10.00;99.90
55135;DHT22;41031;44.750;11.308;2023-01-09T04:06:22;10.00;99.90
55135;DHT22;41031;44.750;11.308;2023-01-09T04:08:49;10.00;99.90
55135;DHT22;41031;44.750;11.308;2023-01-09T04:11:16;10.00;99.90
55135;DHT22;41031;44.750;11.308;2023-01-09T04:13:43;10.00;99.90
55135;DHT22;41031;44.750;11.308;2023-01-09T04:16:10;10.00;99.90
55135;DHT22;41031;44.750;11.308;2023-01-09T04:18:38;10.00;99.90
55135;DHT22;41031;44.750;11.308;2023-01-09T04:21:05;10.00;99.90
55135;DHT22;41031;44.750;11.308;2023-01-09T04:23:32;10.00;99.90
55135;DHT22;41031;44.750;11.308;2023-01-09T04:26:00;10.00;99.90
55135;DHT22;41031;44.750;11.308;2023-01-09T04:28:27;10.00;99.90
55135;DHT22;41031;44.750;11.308;2023-01-09T04:30:54;10.00;99.90
55135;DHT22;41031;44.750;11.308;2023-01-09T04:33:21;10.00;99.90
55135;DHT22;41031;44.750;11.308;2023-01-09T04:35:48;10.00;99.90
55135;DHT22;41031;44.750;11.308;2023-01-09T04:38:15;10.00;99.90
55135;DHT22;41031;44.750;11.308;2023-01-09T04:40:42;10.00;99.90
55135;DHT22;41031;44.750;11.308;2023-01-09T04:43:09;10.00;99.90
55135;DHT22;41031;44.750;11.308;2023-01-09T04:45:36;10.00;99.90
55135;DHT22;41031;44.750;11.308;2023-01-09T04:48:03;10.00;99.90
55135;DHT22;41031;44.750;11.308;2023-01-09T04:50:30;10.00;99.90
55135;DHT22;41031;44.750;11.308;2023-01-09T04:52:57;10.00;99.90
55135;DHT22;41031;44.750;11.308;2023-01-09T04:55:25;10.00;99.90
55135;DHT22;41031;44.750;11.308;2023-01-09T04:57:51;10.00;99.90
55135;DHT22;41031;44.750;11.308;2023-01-09T05:00:19;10.00;99.90
55135;DHT22;41031;44.750;11.308;2023-01-09T05:02:46;10.10;99.90
55135;DHT22;41031;44.750;11.308;2023-01-09T05:05:13;10.10;99.90
55135;DHT22;41031;44.750;11.308;2023-01-09T05:07:40;10.10;99.90
55135;DHT22;41031;44.750;11.308;2023-01-09T05:10:08;10.10;99.90
55135;DHT22;41031;44.750;11.308;2023-01-09T05:12:35;10.10;99.90
55135;DHT22;41031;44.750;11.308;2023-01-09T05:15:03;10.10;99.90
55135;DHT22;41031;44.750;11.308;2023-01-09T05:17:31;10.10;99.90
55135;DHT22;41031;44.750;11.308;2023-01-09T05:19:58;10.10;99.90
55135;DHT22;41031;44.750;11.308;2023-01-09T05:22:26;10.10;99.90
55135;DHT22;41031;44.750;11.308;2023-01-09T05:24:53;10.10;99.90
55135;DHT22;41031;44.750;11.308;2023-01-09T05:27:20;10.10;99.90
55135;DHT22;41031;44.750;11.308;2023-01-09T05:29:47;10.10;99.90
55135;DHT22;41031;44.750;11.308;2023-01-09T05:32:14;10.10;99.90
55135;DHT22;41031;44.750;11.308;2023-01-09T05:34:41;10.10;99.90
55135;DHT22;41031;44.750;11.308;2023-01-09T05:37:08;10.10;99.90
55135;DHT22;41031;44.750;11.308;2023-01-09T05:39:35;10.10;99.90
55135;DHT22;41031;44.750;11.308;2023-01-09T05:42:02;10.10;99.90
55135;DHT22;41031;44.750;11.308;2023-01-09T05:44:29;10.10;99.90
55135;DHT22;41031;44.750;11.308;2023-01-09T05:46:56;10.00;99.90
55135;DHT22;41031;44.750;11.308;2023-01-09T05:49:23;10.00;99.90
55135;DHT22;41031;44.750;11.308;2023-01-09T05:51:51;10.00;99.90
55135;DHT22;41031;44.750;11.308;2023-01-09T05:54:18;10.00;99.90
55135;DHT22;41031;44.750;11.308;2023-01-09T05:56:45;10.00;99.90
55135;DHT22;41031;44.750;11.308;2023-01-09T05:59:11;10.00;99.90
55135;DHT22;41031;44.750;11.308;2023-01-09T06:01:39;10.00;99.90
55135;DHT22;41031;44.750;11.308;2023-01-09T06:04:06;10.00;99.90
55135;DHT22;41031;44.750;11.308;2023-01-09T06:06:33;10.00;99.90
55135;DHT22;41031;44.750;11.308;2023-01-09T06:09:00;10.00;99.90
55135;DHT22;41031;44.750;11.308;2023-01-09T06:11:27;10.00;99.90
55135;DHT22;41031;44.750;11.308;2023-01-09T06:13:54;10.00;99.90
55135;DHT22;41031;44.750;11.308;2023-01-09T06:16:21;10.00;99.90
55135;DHT22;41031;44.750;11.308;2023-01-09T06:18:48;10.00;99.90
55135;DHT22;41031;44.750;11.308;2023-01-09T06:21:16;10.00;99.90
55135;DHT22;41031;44.750;11.308;2023-01-09T06:23:43;10.00;99.90
55135;DHT22;41031;44.750;11.308;2023-01-09T06:26:10;10.00;99.90
55135;DHT22;41031;44.750;11.308;2023-01-09T06:28:37;10.00;99.90
55135;DHT22;41031;44.750;11.308;2023-01-09T06:31:04;10.00;99.90
55135;DHT22;41031;44.750;11.308;2023-01-09T06:33:31;10.00;99.90
55135;DHT22;41031;44.750;11.308;2023-01-09T06:35:58;10.00;99.90
55135;DHT22;41031;44.750;11.308;2023-01-09T06:38:25;10.00;99.90
55135;DHT22;41031;44.750;11.308;2023-01-09T06:40:52;10.00;99.90
55135;DHT22;41031;44.750;11.308;2023-01-09T06:43:19;10.00;99.90
55135;DHT22;41031;44.750;11.308;2023-01-09T06:45:47;10.00;99.90
55135;DHT22;41031;44.750;11.308;2023-01-09T06:48:14;10.00;99.90
55135;DHT22;41031;44.750;11.308;2023-01-09T06:50:41;10.00;99.90
55135;DHT22;41031;44.750;11.308;2023-01-09T06:53:08;10.00;99.90
55135;DHT22;41031;44.750;11.308;2023-01-09T06:55:36;10.00;99.90
55135;DHT22;41031;44.750;11.308;2023-01-09T06:58:03;10.00;99.90
55135;DHT22;41031;44.750;11.308;2023-01-09T07:00:30;10.00;99.90
55135;DHT22;41031;44.750;11.308;2023-01-09T07:02:57;10.00;99.90
55135;DHT22;41031;44.750;11.308;2023-01-09T07:05:24;10.00;99.90
55135;DHT22;41031;44.750;11.308;2023-01-09T07:07:51;10.00;99.90
55135;DHT22;41031;44.750;11.308;2023-01-09T07:10:18;10.00;99.90
55135;DHT22;41031;44.750;11.308;2023-01-09T07:12:45;10.00;99.90
55135;DHT22;41031;44.750;11.308;2023-01-09T07:15:12;10.00;99.90
55135;DHT22;41031;44.750;11.308;2023-01-09T07:17:40;10.00;99.90
55135;DHT22;41031;44.750;11.308;2023-01-09T07:20:07;10.00;99.90
55135;DHT22;41031;44.750;11.308;2023-01-09T07:22:34;10.00;99.90
55135;DHT22;41031;44.750;11.308;2023-01-09T07:25:02;10.00;99.90
55135;DHT22;41031;44.750;11.308;2023-01-09T07:27:29;9.90;99.90
55135;DHT22;41031;44.750;11.308;2023-01-09T07:29:56;9.90;99.90
55135;DHT22;41031;44.750;11.308;2023-01-09T07:32:23;9.90;99.90
55135;DHT22;41031;44.750;11.308;2023-01-09T07:34:50;9.90;99.90
55135;DHT22;41031;44.750;11.308;2023-01-09T07:37:17;9.90;99.90
55135;DHT22;41031;44.750;11.308;2023-01-09T07:39:44;9.90;99.90
55135;DHT22;41031;44.750;11.308;2023-01-09T07:42:11;9.90;99.90
55135;DHT22;41031;44.750;11.308;2023-01-09T07:44:38;9.90;99.90
55135;DHT22;41031;44.750;11.308;2023-01-09T07:47:06;9.90;99.90
55135;DHT22;41031;44.750;11.308;2023-01-09T07:49:33;9.90;99.90
55135;DHT22;41031;44.750;11.308;2023-01-09T07:52:00;9.90;99.90
55135;DHT22;41031;44.750;11.308;2023-01-09T07:54:27;9.90;99.90
55135;DHT22;41031;44.750;11.308;2023-01-09T07:56:54;9.90;99.90
55135;DHT22;41031;44.750;11.308;2023-01-09T07:59:22;9.90;99.90
55135;DHT22;41031;44.750;11.308;2023-01-09T08:01:49;9.90;99.90
55135;DHT22;41031;44.750;11.308;2023-01-09T08:04:16;9.90;99.90
55135;DHT22;41031;44.750;11.308;2023-01-09T08:06:43;9.90;99.90
55135;DHT22;41031;44.750;11.308;2023-01-09T08:09:10;9.90;99.90
55135;DHT22;41031;44.750;11.308;2023-01-09T08:11:37;9.90;99.90
55135;DHT22;41031;44.750;11.308;2023-01-09T08:14:04;10.00;99.90
55135;DHT22;41031;44.750;11.308;2023-01-09T08:16:31;10.00;99.90
55135;DHT22;41031;44.750;11.308;2023-01-09T08:18:58;10.00;99.90
55135;DHT22;41031;44.750;11.308;2023-01-09T08:21:26;10.10;99.90
55135;DHT22;41031;44.750;11.308;2023-01-09T08:23:53;10.10;99.90
55135;DHT22;41031;44.750;11.308;2023-01-09T08:26:20;10.10;99.90
55135;DHT22;41031;44.750;11.308;2023-01-09T08:28:47;10.00;99.90
55135;DHT22;41031;44.750;11.308;2023-01-09T08:31:14;10.00;99.90
55135;DHT22;41031;44.750;11.308;2023-01-09T08:33:41;10.00;99.90
55135;DHT22;41031;44.750;11.308;2023-01-09T08:36:08;10.00;99.90
55135;DHT22;41031;44.750;11.308;2023-01-09T08:38:35;10.00;99.90
55135;DHT22;41031;44.750;11.308;2023-01-09T08:41:02;10.10;99.90
55135;DHT22;41031;44.750;11.308;2023-01-09T08:43:49;10.10;99.90
55135;DHT22;41031;44.750;11.308;2023-01-09T08:46:35;10.10;99.90
55135;DHT22;41031;44.750;11.308;2023-01-09T08:49:21;10.20;99.90
55135;DHT22;41031;44.750;11.308;2023-01-09T08:51:48;10.20;99.90
55135;DHT22;41031;44.750;11.308;2023-01-09T08:54:15;10.30;99.90
55135;DHT22;41031;44.750;11.308;2023-01-09T08:56:42;10.30;99.90
55135;DHT22;41031;44.750;11.308;2023-01-09T08:59:09;10.40;99.90
55135;DHT22;41031;44.750;11.308;2023-01-09T09:01:36;10.40;99.90
55135;DHT22;41031;44.750;11.308;2023-01-09T09:04:04;10.40;99.90
55135;DHT22;41031;44.750;11.308;2023-01-09T09:06:32;10.50;99.90
55135;DHT22;41031;44.750;11.308;2023-01-09T09:08:59;10.50;99.90
55135;DHT22;41031;44.750;11.308;2023-01-09T09:11:29;10.50;99.90
55135;DHT22;41031;44.750;11.308;2023-01-09T09:13:57;10.50;99.90
55135;DHT22;41031;44.750;11.308;2023-01-09T09:16:25;10.50;99.90
55135;DHT22;41031;44.750;11.308;2023-01-09T09:18:52;10.50;99.80
55135;DHT22;41031;44.750;11.308;2023-01-09T09:21:19;10.50;99.80
55135;DHT22;41031;44.750;11.308;2023-01-09T09:23:46;10.60;99.80
55135;DHT22;41031;44.750;11.308;2023-01-09T09:26:13;10.60;99.70
55135;DHT22;41031;44.750;11.308;2023-01-09T09:28:41;10.70;99.70
55135;DHT22;41031;44.750;11.308;2023-01-09T09:31:07;10.60;99.80
55135;DHT22;41031;44.750;11.308;2023-01-09T09:33:35;10.60;99.40
55135;DHT22;41031;44.750;11.308;2023-01-09T09:36:02;10.60;99.30
55135;DHT22;41031;44.750;11.308;2023-01-09T09:38:29;10.60;99.30
55135;DHT22;41031;44.750;11.308;2023-01-09T09:48:30;10.50;99.20
55135;DHT22;41031;44.750;11.308;2023-01-09T09:53:25;10.50;99.20
55135;DHT22;41031;44.750;11.308;2023-01-09T09:55:54;10.50;99.10
55135;DHT22;41031;44.750;11.308;2023-01-09T10:01:37;10.50;99.10
55135;DHT22;41031;44.750;11.308;2023-01-09T10:04:15;10.60;99.10
55135;DHT22;41031;44.750;11.308;2023-01-09T10:06:49;10.60;98.70
55135;DHT22;41031;44.750;11.308;2023-01-09T10:12:45;10.60;98.70
55135;DHT22;41031;44.750;11.308;2023-01-09T10:15:18;10.60;98.60
55135;DHT22;41031;44.750;11.308;2023-01-09T10:24:10;10.50;98.60
55135;DHT22;41031;44.750;11.308;2023-01-09T10:26:20;10.50;98.60
55135;DHT22;41031;44.750;11.308;2023-01-09T10:31:28;10.40;98.60
55135;DHT22;41031;44.750;11.308;2023-01-09T10:39:21;10.30;98.60
55135;DHT22;41031;44.750;11.308;2023-01-09T10:42:03;10.30;98.60
55135;DHT22;41031;44.750;11.308;2023-01-09T10:44:36;10.30;98.90
55135;DHT22;41031;44.750;11.308;2023-01-09T10:47:14;10.20;98.70
55135;DHT22;41031;44.750;11.308;2023-01-09T10:49:43;10.20;98.80
55135;DHT22;41031;44.750;11.308;2023-01-09T10:52:18;10.20;98.90
55135;DHT22;41031;44.750;11.308;2023-01-09T10:54:59;10.20;99.00
55135;DHT22;41031;44.750;11.308;2023-01-09T10:57:41;10.30;99.20
55135;DHT22;41031;44.750;11.308;2023-01-09T11:00:29;10.50;99.30
55135;DHT22;41031;44.750;11.308;2023-01-09T11:02:56;10.70;99.10
55135;DHT22;41031;44.750;11.308;2023-01-09T11:05:27;10.80;98.80
55135;DHT22;41031;44.750;11.308;2023-01-09T11:08:38;10.90;98.70
55135;DHT22;41031;44.750;11.308;2023-01-09T11:11:09;11.00;98.30
55135;DHT22;41031;44.750;11.308;2023-01-09T11:13:37;11.00;97.80
55135;DHT22;41031;44.750;11.308;2023-01-09T11:18:48;10.80;97.40
55135;DHT22;41031;44.750;11.308;2023-01-09T11:21:34;10.80;97.90
55135;DHT22;41031;44.750;11.308;2023-01-09T11:26:49;10.80;98.50
55135;DHT22;41031;44.750;11.308;2023-01-09T11:29:21;10.80;98.60
55135;DHT22;41031;44.750;11.308;2023-01-09T11:31:56;10.90;98.80
55135;DHT22;41031;44.750;11.308;2023-01-09T11:34:29;11.00;98.80
55135;DHT22;41031;44.750;11.308;2023-01-09T11:37:06;11.10;98.80
55135;DHT22;41031;44.750;11.308;2023-01-09T11:39:36;11.20;98.70
55135;DHT22;41031;44.750;11.308;2023-01-09T11:42:19;11.40;98.70
55135;DHT22;41031;44.750;11.308;2023-01-09T11:47:42;11.60;97.70
55135;DHT22;41031;44.750;11.308;2023-01-09T11:53:18;11.60;96.60
55135;DHT22;41031;44.750;11.308;2023-01-09T11:55:46;11.50;96.60
55135;DHT22;41031;44.750;11.308;2023-01-09T11:58:20;11.50;96.70
55135;DHT22;41031;44.750;11.308;2023-01-09T12:00:57;11.50;96.90
55135;DHT22;41031;44.750;11.308;2023-01-09T12:07:00;11.60;97.30
55135;DHT22;41031;44.750;11.308;2023-01-09T12:09:42;11.80;97.30
55135;DHT22;41031;44.750;11.308;2023-01-09T12:12:50;11.90;96.90
55135;DHT22;41031;44.750;11.308;2023-01-09T12:34:41;11.40;96.40
55135;DHT22;41031;44.750;11.308;2023-01-09T12:52:25;11.40;96.50
55135;DHT22;41031;44.750;11.308;2023-01-09T12:54:46;11.40;96.30
55135;DHT22;41031;44.750;11.308;2023-01-09T12:57:30;11.50;96.40
55135;DHT22;41031;44.750;11.308;2023-01-09T13:00:29;11.40;95.20
55135;DHT22;41031;44.750;11.308;2023-01-09T13:03:03;11.30;94.60
55135;DHT22;41031;44.750;11.308;2023-01-09T13:05:43;11.20;93.70
55135;DHT22;41031;44.750;11.308;2023-01-09T13:08:30;11.10;94.00
55135;DHT22;41031;44.750;11.308;2023-01-09T13:14:23;11.00;94.40
55135;DHT22;41031;44.750;11.308;2023-01-09T13:16:53;10.90;94.20
55135;DHT22;41031;44.750;11.308;2023-01-09T13:19:23;10.90;94.60
55135;DHT22;41031;44.750;11.308;2023-01-09T13:21:51;11.00;94.80
55135;DHT22;41031;44.750;11.308;2023-01-09T13:24:29;11.00;95.00
55135;DHT22;41031;44.750;11.308;2023-01-09T13:27:02;11.00;95.00
55135;DHT22;41031;44.750;11.308;2023-01-09T13:29:46;11.00;95.10
55135;DHT22;41031;44.750;11.308;2023-01-09T13:32:20;11.00;94.70
55135;DHT22;41031;44.750;11.308;2023-01-09T13:34:52;11.00;94.70
55135;DHT22;41031;44.750;11.308;2023-01-09T13:37:32;11.10;94.70
55135;DHT22;41031;44.750;11.308;2023-01-09T13:42:28;11.10;94.80
55135;DHT22;41031;44.750;11.308;2023-01-09T13:47:43;11.10;94.90
55135;DHT22;41031;44.750;11.308;2023-01-09T13:52:39;11.20;95.20
55135;DHT22;41031;44.750;11.308;2023-01-09T14:03:24;11.70;95.10
55135;DHT22;41031;44.750;11.308;2023-01-09T14:08:24;11.90;94.60
55135;DHT22;41031;44.750;11.308;2023-01-09T14:11:02;12.00;94.50
55135;DHT22;41031;44.750;11.308;2023-01-09T14:13:39;12.00;94.40
55135;DHT22;41031;44.750;11.308;2023-01-09T14:19:34;12.00;93.90
55135;DHT22;41031;44.750;11.308;2023-01-09T14:21:54;12.00;93.90
55135;DHT22;41031;44.750;11.308;2023-01-09T14:24:31;11.90;93.90
55135;DHT22;41031;44.750;11.308;2023-01-09T14:27:00;11.90;93.90
55135;DHT22;41031;44.750;11.308;2023-01-09T14:34:55;11.70;94.00
55135;DHT22;41031;44.750;11.308;2023-01-09T14:37:24;11.70;94.10
55135;DHT22;41031;44.750;11.308;2023-01-09T14:39:52;11.70;94.20
55135;DHT22;41031;44.750;11.308;2023-01-09T14:42:23;11.60;94.30
55135;DHT22;41031;44.750;11.308;2023-01-09T14:47:33;11.60;94.40
55135;DHT22;41031;44.750;11.308;2023-01-09T15:00:49;11.90;94.70
55135;DHT22;41031;44.750;11.308;2023-01-09T15:03:19;11.90;94.60
55135;DHT22;41031;44.750;11.308;2023-01-09T15:05:48;11.90;94.40
55135;DHT22;41031;44.750;11.308;2023-01-09T15:08:19;11.90;94.30
55135;DHT22;41031;44.750;11.308;2023-01-09T15:10:50;11.90;94.00
55135;DHT22;41031;44.750;11.308;2023-01-09T15:13:34;11.90;93.70
55135;DHT22;41031;44.750;11.308;2023-01-09T15:16:05;11.80;93.70
55135;DHT22;41031;44.750;11.308;2023-01-09T15:18:40;11.80;93.60
55135;DHT22;41031;44.750;11.308;2023-01-09T15:21:16;11.70;93.60
55135;DHT22;41031;44.750;11.308;2023-01-09T15:23:45;11.70;93.50
55135;DHT22;41031;44.750;11.308;2023-01-09T15:28:42;11.60;92.90
55135;DHT22;41031;44.750;11.308;2023-01-09T15:31:15;11.60;92.20
55135;DHT22;41031;44.750;11.308;2023-01-09T15:33:45;11.50;92.30
55135;DHT22;41031;44.750;11.308;2023-01-09T15:36:23;11.40;92.40
55135;DHT22;41031;44.750;11.308;2023-01-09T15:38:52;11.30;92.40
55135;DHT22;41031;44.750;11.308;2023-01-09T15:41:24;11.20;92.50
55135;DHT22;41031;44.750;11.308;2023-01-09T15:44:21;11.10;92.60
55135;DHT22;41031;44.750;11.308;2023-01-09T15:46:49;11.10;92.70
55135;DHT22;41031;44.750;11.308;2023-01-09T15:49:17;11.00;92.80
55135;DHT22;41031;44.750;11.308;2023-01-09T15:51:46;10.90;92.90
55135;DHT22;41031;44.750;11.308;2023-01-09T15:54:16;10.80;93.00
55135;DHT22;41031;44.750;11.308;2023-01-09T15:56:43;10.80;93.20
55135;DHT22;41031;44.750;11.308;2023-01-09T15:59:38;10.70;93.30
55135;DHT22;41031;44.750;11.308;2023-01-09T16:02:12;10.70;93.40
55135;DHT22;41031;44.750;11.308;2023-01-09T16:05:07;10.60;93.60
55135;DHT22;41031;44.750;11.308;2023-01-09T16:07:35;10.50;93.70
55135;DHT22;41031;44.750;11.308;2023-01-09T16:10:02;10.50;93.80
55135;DHT22;41031;44.750;11.308;2023-01-09T16:12:30;10.50;94.00
55135;DHT22;41031;44.750;11.308;2023-01-09T16:14:59;10.40;94.00
55135;DHT22;41031;44.750;11.308;2023-01-09T16:17:26;10.40;94.10
55135;DHT22;41031;44.750;11.308;2023-01-09T16:19:57;10.30;94.20
55135;DHT22;41031;44.750;11.308;2023-01-09T16:22:30;10.30;94.30
55135;DHT22;41031;44.750;11.308;2023-01-09T16:25:20;10.30;94.40
55135;DHT22;41031;44.750;11.308;2023-01-09T16:28:20;10.20;94.40
55135;DHT22;41031;44.750;11.308;2023-01-09T16:30:53;10.20;94.50
55135;DHT22;41031;44.750;11.308;2023-01-09T16:33:24;10.10;94.60
55135;DHT22;41031;44.750;11.308;2023-01-09T16:35:52;10.10;94.70
55135;DHT22;41031;44.750;11.308;2023-01-09T16:38:20;10.10;94.80
55135;DHT22;41031;44.750;11.308;2023-01-09T16:41:01;10.10;94.90
55135;DHT22;41031;44.750;11.308;2023-01-09T16:43:48;10.00;94.90
55135;DHT22;41031;44.750;11.308;2023-01-09T16:46:19;10.00;95.00
55135;DHT22;41031;44.750;11.308;2023-01-09T16:48:48;10.00;95.00
55135;DHT22;41031;44.750;11.308;2023-01-09T16:51:17;10.00;95.10
55135;DHT22;41031;44.750;11.308;2023-01-09T16:53:45;9.90;95.10
55135;DHT22;41031;44.750;11.308;2023-01-09T16:56:21;9.90;95.10
55135;DHT22;41031;44.750;11.308;2023-01-09T16:58:49;9.80;95.10
55135;DHT22;41031;44.750;11.308;2023-01-09T17:01:19;9.80;95.20
55135;DHT22;41031;44.750;11.308;2023-01-09T17:03:47;9.70;95.20
55135;DHT22;41031;44.750;11.308;2023-01-09T17:06:20;9.70;95.20
55135;DHT22;41031;44.750;11.308;2023-01-09T17:08:48;9.70;95.30
55135;DHT22;41031;44.750;11.308;2023-01-09T17:11:20;9.60;95.30
55135;DHT22;41031;44.750;11.308;2023-01-09T17:13:47;9.60;95.40
55135;DHT22;41031;44.750;11.308;2023-01-09T17:16:16;9.60;95.40
55135;DHT22;41031;44.750;11.308;2023-01-09T17:18:43;9.50;95.40
55135;DHT22;41031;44.750;11.308;2023-01-09T17:21:24;9.50;95.40
55135;DHT22;41031;44.750;11.308;2023-01-09T17:23:52;9.40;95.40
55135;DHT22;41031;44.750;11.308;2023-01-09T17:26:40;9.40;95.40
55135;DHT22;41031;44.750;11.308;2023-01-09T17:29:27;9.30;95.50
55135;DHT22;41031;44.750;11.308;2023-01-09T17:31:56;9.30;95.60
55135;DHT22;41031;44.750;11.308;2023-01-09T17:34:23;9.30;95.60
55135;DHT22;41031;44.750;11.308;2023-01-09T17:36:50;9.30;95.60
55135;DHT22;41031;44.750;11.308;2023-01-09T17:39:18;9.30;95.60
55135;DHT22;41031;44.750;11.308;2023-01-09T17:41:45;9.20;95.60
55135;DHT22;41031;44.750;11.308;2023-01-09T17:44:12;9.20;95.60
55135;DHT22;41031;44.750;11.308;2023-01-09T17:46:41;9.20;95.60
55135;DHT22;41031;44.750;11.308;2023-01-09T17:49:18;9.20;95.80
55135;DHT22;41031;44.750;11.308;2023-01-09T17:51:46;9.20;95.60
55135;DHT22;41031;44.750;11.308;2023-01-09T17:54:13;9.10;95.60
55135;DHT22;41031;44.750;11.308;2023-01-09T17:56:43;9.00;95.60
55135;DHT22;41031;44.750;11.308;2023-01-09T17:59:12;9.00;95.60
55135;DHT22;41031;44.750;11.308;2023-01-09T18:01:40;9.00;95.70
55135;DHT22;41031;44.750;11.308;2023-01-09T18:04:08;8.90;95.70
55135;DHT22;41031;44.750;11.308;2023-01-09T18:06:35;8.90;96.10
55135;DHT22;41031;44.750;11.308;2023-01-09T18:09:03;8.90;95.90
55135;DHT22;41031;44.750;11.308;2023-01-09T18:11:31;8.90;95.90